createdAt,value
2023-05-16T00:01:30.076Z,14.45
2023-05-16T00:03:57.411Z,14.38
2023-05-16T00:06:23.913Z,12.55
2023-05-16T00:08:50.337Z,12.00
2023-05-16T00:11:17.707Z,11.80
2023-05-16T00:13:45.293Z,12.00
2023-05-16T00:16:14.448Z,11.57
2023-05-16T00:18:40.972Z,12.02
2023-05-16T00:21:07.422Z,12.13
2023-05-16T00:23:34.333Z,11.75
2023-05-16T00:26:00.746Z,11.50
2023-05-16T00:28:27.139Z,12.30
2023-05-16T00:30:53.533Z,10.82
2023-05-16T00:33:20.155Z,9.75
2023-05-16T00:35:46.525Z,9.93
2023-05-16T00:38:12.963Z,9.25
2023-05-16T00:40:39.417Z,9.52
2023-05-16T00:43:05.899Z,8.52
2023-05-16T00:45:32.310Z,8.50
2023-05-16T00:47:58.828Z,9.93
2023-05-16T00:50:25.491Z,9.23
2023-05-16T00:52:52.231Z,9.20
2023-05-16T00:55:18.739Z,9.68
2023-05-16T00:57:45.297Z,10.02
2023-05-16T01:00:12.621Z,9.82
2023-05-16T01:02:39.289Z,10.35
2023-05-16T01:05:07.236Z,10.13
2023-05-16T01:07:34.004Z,10.23
2023-05-16T01:10:00.699Z,9.45
2023-05-16T01:12:38.381Z,9.02
2023-05-16T01:15:08.716Z,9.38
2023-05-16T01:18:21.210Z,10.13
2023-05-16T01:20:57.858Z,9.68
2023-05-16T01:23:34.529Z,8.00
2023-05-16T01:26:24.959Z,7.20
2023-05-16T01:28:52.691Z,6.10
2023-05-16T01:31:20.215Z,5.00
2023-05-16T01:33:47.279Z,4.82
2023-05-16T01:36:31.349Z,4.47
2023-05-16T01:39:26.070Z,4.25
2023-05-16T01:42:02.940Z,4.78
2023-05-16T01:44:32.793Z,3.35
2023-05-16T01:47:02.417Z,3.85
2023-05-16T01:49:44.089Z,3.38
2023-05-16T01:52:17.582Z,3.95
2023-05-16T01:54:45.452Z,3.90
2023-05-16T01:57:12.895Z,3.75
2023-05-16T01:59:41.071Z,3.47
2023-05-16T02:02:07.500Z,4.13
2023-05-16T02:04:33.988Z,4.22
2023-05-16T02:07:01.794Z,4.78
2023-05-16T02:09:28.200Z,4.65
2023-05-16T02:11:54.692Z,4.80
2023-05-16T02:14:21.063Z,5.05
2023-05-16T02:16:48.488Z,5.53
2023-05-16T02:19:15.014Z,5.25
2023-05-16T02:21:41.470Z,4.72
2023-05-16T02:24:07.878Z,5.05
2023-05-16T02:26:34.283Z,4.88
2023-05-16T02:29:00.684Z,5.28
2023-05-16T02:31:32.297Z,6.82
2023-05-16T02:33:59.884Z,4.95
2023-05-16T02:36:26.542Z,4.63
2023-05-16T02:38:53.187Z,4.70
2023-05-16T02:41:22.225Z,5.07
2023-05-16T02:43:49.247Z,5.78
2023-05-16T02:46:27.900Z,5.88
2023-05-16T02:48:54.693Z,6.22
2023-05-16T02:51:22.749Z,5.63
2023-05-16T02:53:49.311Z,5.63
2023-05-16T02:56:15.718Z,6.45
2023-05-16T02:58:42.397Z,5.60
2023-05-16T03:01:09.605Z,5.95
2023-05-16T03:03:37.354Z,6.20
2023-05-16T03:06:03.863Z,7.50
2023-05-16T03:08:30.718Z,6.95
2023-05-16T03:10:57.121Z,6.70
2023-05-16T03:13:23.721Z,7.90
2023-05-16T03:15:50.592Z,8.10
2023-05-16T03:18:17.004Z,7.97
2023-05-16T03:20:43.499Z,7.35
2023-05-16T03:23:09.917Z,6.18
2023-05-16T03:25:36.914Z,6.38
2023-05-16T03:28:08.216Z,6.65
2023-05-16T03:30:34.925Z,5.87
2023-05-16T03:33:01.437Z,7.55
2023-05-16T03:35:28.810Z,5.80
2023-05-16T03:37:55.743Z,5.47
2023-05-16T03:40:22.153Z,5.07
2023-05-16T03:42:48.609Z,5.68
2023-05-16T03:45:15.669Z,4.72
2023-05-16T03:47:42.733Z,6.53
2023-05-16T03:50:09.879Z,5.03
2023-05-16T03:52:36.490Z,5.93
2023-05-16T03:55:03.837Z,5.28
2023-05-16T03:57:31.891Z,4.38
2023-05-16T03:59:58.318Z,4.30
2023-05-16T04:02:24.884Z,5.35
2023-05-16T04:04:51.398Z,5.50
2023-05-16T04:07:17.782Z,4.18
2023-05-16T04:09:44.199Z,4.20
2023-05-16T04:12:10.654Z,4.70
2023-05-16T04:14:37.281Z,4.18
2023-05-16T04:17:03.812Z,4.55
2023-05-16T04:19:30.210Z,4.65
2023-05-16T04:21:57.043Z,5.00
2023-05-16T04:24:26.476Z,4.20
2023-05-16T04:26:52.939Z,4.30
2023-05-16T04:29:19.564Z,4.35
2023-05-16T04:31:46.031Z,3.65
2023-05-16T04:34:13.055Z,5.07
2023-05-16T04:36:40.241Z,4.20
2023-05-16T04:39:08.062Z,5.07
2023-05-16T04:41:36.132Z,4.45
2023-05-16T04:44:06.339Z,4.45
2023-05-16T04:46:32.752Z,4.97
2023-05-16T04:48:59.209Z,5.25
2023-05-16T04:51:25.767Z,5.50
2023-05-16T04:53:52.159Z,5.65
2023-05-16T04:56:18.880Z,4.47
2023-05-16T04:58:45.286Z,5.90
2023-05-16T05:01:11.702Z,5.35
2023-05-16T05:03:38.128Z,6.07
2023-05-16T05:06:04.719Z,4.45
2023-05-16T05:08:31.128Z,7.10
2023-05-16T05:10:57.732Z,5.45
2023-05-16T05:13:24.152Z,5.88
2023-05-16T05:15:52.225Z,4.80
2023-05-16T05:18:18.896Z,7.55
2023-05-16T05:20:45.312Z,5.45
2023-05-16T05:23:11.794Z,5.07
2023-05-16T05:25:38.825Z,5.32
2023-05-16T05:28:05.911Z,5.38
2023-05-16T05:30:32.344Z,4.57
2023-05-16T05:32:58.808Z,4.75
2023-05-16T05:35:25.474Z,4.68
2023-05-16T05:37:52.304Z,6.78
2023-05-16T05:40:18.699Z,5.32
2023-05-16T05:42:47.032Z,5.40
2023-05-16T05:45:14.656Z,5.38
2023-05-16T05:47:41.278Z,4.70
2023-05-16T05:50:09.003Z,5.43
2023-05-16T05:52:35.400Z,4.63
2023-05-16T05:55:01.949Z,4.78
2023-05-16T05:57:28.334Z,5.32
2023-05-16T05:59:54.714Z,3.80
2023-05-16T06:02:21.296Z,4.72
2023-05-16T06:04:47.756Z,5.03
2023-05-16T06:07:15.935Z,3.60
2023-05-16T06:09:43.491Z,3.33
2023-05-16T06:12:09.941Z,3.78
2023-05-16T06:14:36.344Z,4.82
2023-05-16T06:17:02.794Z,4.47
2023-05-16T06:19:29.310Z,4.65
2023-05-16T06:21:56.244Z,3.78
2023-05-16T06:24:22.772Z,4.15
2023-05-16T06:26:50.202Z,3.88
2023-05-16T06:29:17.340Z,3.45
2023-05-16T06:31:44.625Z,3.10
2023-05-16T06:34:11.213Z,3.67
2023-05-16T06:36:37.665Z,4.03
2023-05-16T06:39:04.863Z,3.90
2023-05-16T06:41:31.325Z,2.78
2023-05-16T06:43:57.801Z,3.58
2023-05-16T06:46:24.363Z,4.70
2023-05-16T06:48:50.882Z,3.00
2023-05-16T06:51:17.318Z,3.35
2023-05-16T06:53:43.757Z,3.58
2023-05-16T06:56:10.183Z,3.63
2023-05-16T06:58:36.875Z,3.67
2023-05-16T07:01:03.414Z,3.85
2023-05-16T07:03:31.890Z,3.50
2023-05-16T07:05:58.524Z,3.72
2023-05-16T07:08:25.925Z,3.58
2023-05-16T07:10:52.350Z,3.47
2023-05-16T07:13:18.776Z,4.25
2023-05-16T07:15:45.222Z,3.10
2023-05-16T07:18:11.831Z,3.63
2023-05-16T07:20:38.320Z,4.38
2023-05-16T07:23:04.744Z,3.50
2023-05-16T07:25:31.601Z,2.70
2023-05-16T07:27:58.037Z,2.72
2023-05-16T07:30:24.663Z,2.67
2023-05-16T07:32:51.316Z,3.05
2023-05-16T07:35:18.293Z,3.50
2023-05-16T07:37:44.707Z,3.08
2023-05-16T07:40:11.681Z,2.40
2023-05-16T07:42:38.147Z,2.75
2023-05-16T07:45:06.911Z,2.95
2023-05-16T07:47:33.404Z,3.50
2023-05-16T07:49:59.890Z,4.05
2023-05-16T07:52:26.336Z,2.40
2023-05-16T07:54:52.834Z,2.40
2023-05-16T07:57:19.485Z,2.55
2023-05-16T07:59:46.752Z,2.40
2023-05-16T08:02:13.245Z,2.28
2023-05-16T08:04:39.709Z,2.30
2023-05-16T08:07:06.198Z,2.20
2023-05-16T08:09:32.667Z,1.80
2023-05-16T08:12:03.346Z,2.13
2023-05-16T08:14:31.715Z,1.95
2023-05-16T08:17:01.329Z,1.80
2023-05-16T08:19:27.899Z,1.90
2023-05-16T08:21:54.854Z,2.00
2023-05-16T08:24:21.361Z,1.92
2023-05-16T08:26:47.791Z,2.10
2023-05-16T08:29:14.583Z,2.38
2023-05-16T08:31:41.076Z,2.30
2023-05-16T08:34:09.275Z,2.50
2023-05-16T08:36:36.949Z,2.47
2023-05-16T08:39:03.744Z,2.10
2023-05-16T08:41:30.877Z,1.75
2023-05-16T08:43:57.604Z,1.70
2023-05-16T08:46:24.351Z,2.50
2023-05-16T08:48:53.235Z,1.38
2023-05-16T08:51:20.795Z,1.80
2023-05-16T08:54:11.772Z,1.27
2023-05-16T08:56:38.608Z,1.50
2023-05-16T08:59:05.263Z,1.30
2023-05-16T09:01:32.425Z,2.08
2023-05-16T09:04:00.166Z,1.50
2023-05-16T09:06:27.648Z,1.58
2023-05-16T09:08:54.920Z,1.48
2023-05-16T09:11:21.730Z,1.25
2023-05-16T09:13:49.071Z,1.60
2023-05-16T09:16:19.838Z,1.33
2023-05-16T09:18:57.643Z,1.55
2023-05-16T09:21:28.094Z,1.73
2023-05-16T09:23:54.945Z,1.60
2023-05-16T09:26:22.621Z,1.75
2023-05-16T09:28:49.175Z,1.30
2023-05-16T09:31:24.888Z,1.50
2023-05-16T09:33:51.347Z,1.88
2023-05-16T09:36:17.854Z,3.13
2023-05-16T09:38:45.314Z,2.25
2023-05-16T09:41:11.796Z,1.60
2023-05-16T09:43:41.125Z,2.15
2023-05-16T09:46:08.488Z,1.77
2023-05-16T09:48:34.985Z,2.85
2023-05-16T09:51:05.662Z,1.90
2023-05-16T09:53:33.204Z,1.67
2023-05-16T09:56:01.296Z,1.83
2023-05-16T09:58:32.933Z,1.42
2023-05-16T10:00:59.639Z,1.65
2023-05-16T10:03:27.059Z,1.52
2023-05-16T10:05:54.595Z,1.50
2023-05-16T10:08:22.548Z,1.25
2023-05-16T10:10:54.934Z,1.13
2023-05-16T10:13:22.833Z,2.03
2023-05-16T10:15:50.143Z,1.48
2023-05-16T10:18:20.832Z,1.23
2023-05-16T10:20:49.706Z,1.20
2023-05-16T10:23:20.226Z,1.25
2023-05-16T10:25:49.826Z,1.35
2023-05-16T10:28:16.675Z,1.50
2023-05-16T10:30:45.452Z,1.60
2023-05-16T10:33:16.627Z,2.15
2023-05-16T10:35:44.290Z,1.38
2023-05-16T10:38:12.394Z,2.80
2023-05-16T10:40:39.691Z,1.60
2023-05-16T10:43:08.365Z,1.67
2023-05-16T10:45:39.828Z,2.05
2023-05-16T10:48:08.818Z,1.50
2023-05-16T10:50:44.928Z,1.73
2023-05-16T10:53:13.502Z,1.50
2023-05-16T10:55:40.753Z,1.20
2023-05-16T10:58:07.980Z,1.50
2023-05-16T11:00:34.424Z,1.30
2023-05-16T11:03:25.166Z,1.88
2023-05-16T11:05:54.038Z,1.50
2023-05-16T11:08:20.697Z,1.95
2023-05-16T11:10:47.449Z,2.30
2023-05-16T11:13:19.475Z,1.33
2023-05-16T11:15:46.333Z,1.70
2023-05-16T11:18:17.011Z,1.52
2023-05-16T11:20:43.605Z,1.20
2023-05-16T11:23:19.712Z,0.82
2023-05-16T11:25:48.143Z,1.30
2023-05-16T11:28:15.150Z,1.05
2023-05-16T11:30:46.675Z,1.27
2023-05-16T11:33:13.473Z,0.98
2023-05-16T11:35:40.017Z,1.02
2023-05-16T11:38:06.467Z,1.52
2023-05-16T11:40:32.910Z,1.60
2023-05-16T11:43:00.766Z,1.10
2023-05-16T11:45:27.451Z,1.92
2023-05-16T11:47:54.049Z,1.50
2023-05-16T11:50:22.106Z,1.60
2023-05-16T11:52:53.423Z,1.58
2023-05-16T11:55:40.371Z,1.38
2023-05-16T11:58:08.805Z,2.10
2023-05-16T12:00:35.279Z,1.98
2023-05-16T12:03:05.554Z,2.50
2023-05-16T12:05:33.645Z,2.92
2023-05-16T12:08:00.948Z,2.33
2023-05-16T12:10:27.787Z,1.63
2023-05-16T12:12:54.865Z,1.70
2023-05-16T12:15:21.620Z,1.52
2023-05-16T12:17:48.601Z,1.30
2023-05-16T12:20:16.328Z,1.30
2023-05-16T12:22:46.459Z,1.33
2023-05-16T12:25:26.157Z,1.25
2023-05-16T12:27:54.398Z,1.02
2023-05-16T12:30:22.943Z,1.13
2023-05-16T12:33:00.874Z,1.40
2023-05-16T12:35:33.194Z,1.20
2023-05-16T12:38:01.059Z,1.50
2023-05-16T12:40:30.807Z,0.93
2023-05-16T12:42:57.805Z,0.90
2023-05-16T12:45:27.270Z,1.27
2023-05-16T12:47:54.007Z,1.77
2023-05-16T12:50:20.664Z,1.55
2023-05-16T12:52:51.489Z,1.20
2023-05-16T12:55:18.848Z,1.35
2023-05-16T12:57:47.569Z,1.15
2023-05-16T13:00:15.690Z,1.25
2023-05-16T13:02:42.339Z,1.13
2023-05-16T13:05:10.151Z,1.27
2023-05-16T13:07:37.370Z,1.13
2023-05-16T13:10:04.337Z,1.13
2023-05-16T13:12:31.064Z,1.90
2023-05-16T13:14:57.517Z,0.93
2023-05-16T13:17:23.952Z,1.27
2023-05-16T13:19:50.484Z,1.10
2023-05-16T13:22:16.932Z,1.45
2023-05-16T13:24:43.360Z,1.58
2023-05-16T13:27:09.866Z,1.20
2023-05-16T13:29:36.315Z,1.50
2023-05-16T13:32:02.885Z,1.40
2023-05-16T13:34:29.521Z,1.40
2023-05-16T13:36:55.968Z,1.38
2023-05-16T13:39:22.581Z,1.30
2023-05-16T13:41:49.439Z,1.13
2023-05-16T13:44:16.528Z,1.40
2023-05-16T13:46:43.198Z,1.20
2023-05-16T13:49:09.776Z,1.98
2023-05-16T13:51:36.350Z,1.45
2023-05-16T13:54:02.806Z,1.23
2023-05-16T13:56:29.243Z,1.10
2023-05-16T13:59:02.533Z,1.17
2023-05-16T14:01:32.583Z,1.20
2023-05-16T14:03:59.103Z,1.48
2023-05-16T14:06:25.702Z,1.42
2023-05-16T14:08:52.123Z,1.30
2023-05-16T14:11:19.831Z,1.27
2023-05-16T14:13:46.572Z,1.65
2023-05-16T14:16:13.036Z,1.45
2023-05-16T14:18:39.590Z,1.13
2023-05-16T14:21:06.081Z,1.20
2023-05-16T14:23:32.514Z,1.38
2023-05-16T14:25:59.153Z,1.27
2023-05-16T14:28:25.559Z,1.23
2023-05-16T14:30:52.187Z,1.45
2023-05-16T14:33:19.739Z,1.40
2023-05-16T14:35:46.321Z,1.63
2023-05-16T14:38:12.832Z,1.98
2023-05-16T14:40:39.261Z,1.70
2023-05-16T14:43:05.778Z,1.13
2023-05-16T14:45:32.253Z,1.50
2023-05-16T14:47:58.755Z,1.40
2023-05-16T14:50:25.602Z,1.30
2023-05-16T14:52:53.004Z,1.60
2023-05-16T14:55:20.790Z,1.35
2023-05-16T14:57:50.444Z,1.60
2023-05-16T15:00:23.181Z,1.52
2023-05-16T15:02:49.647Z,1.60
2023-05-16T15:05:16.328Z,1.90
2023-05-16T15:07:43.884Z,2.40
2023-05-16T15:10:11.089Z,2.00
2023-05-16T15:12:40.817Z,2.30
2023-05-16T15:15:11.928Z,2.47
2023-05-16T15:17:41.809Z,1.80
2023-05-16T15:20:10.279Z,2.75
2023-05-16T15:22:37.141Z,1.92
2023-05-16T15:25:05.704Z,2.78
2023-05-16T15:27:32.366Z,3.10
2023-05-16T15:29:59.342Z,2.40
2023-05-16T15:32:26.038Z,1.52
2023-05-16T15:34:52.585Z,1.63
2023-05-16T15:37:19.370Z,1.73
2023-05-16T15:39:45.821Z,2.13
2023-05-16T15:42:12.289Z,1.55
2023-05-16T15:44:39.451Z,1.77
2023-05-16T15:47:06.322Z,2.45
2023-05-16T15:49:32.816Z,1.98
2023-05-16T15:51:59.323Z,1.83
2023-05-16T15:54:25.896Z,1.95
2023-05-16T15:56:52.313Z,1.20
2023-05-16T15:59:18.836Z,1.42
2023-05-16T16:01:45.377Z,1.58
2023-05-16T16:04:11.800Z,2.10
2023-05-16T16:06:38.321Z,1.42
2023-05-16T16:09:04.821Z,1.92
2023-05-16T16:11:31.363Z,1.52
2023-05-16T16:13:57.831Z,2.10
2023-05-16T16:16:24.315Z,1.30
2023-05-16T16:18:50.984Z,1.10
2023-05-16T16:21:17.736Z,1.77
2023-05-16T16:23:44.204Z,1.90
2023-05-16T16:26:10.630Z,1.45
2023-05-16T16:28:37.107Z,1.58
2023-05-16T16:31:03.995Z,1.40
2023-05-16T16:33:31.055Z,1.60
2023-05-16T16:35:57.511Z,1.48
2023-05-16T16:38:23.947Z,1.40
2023-05-16T16:40:50.472Z,1.73
2023-05-16T16:43:17.281Z,1.50
2023-05-16T16:45:43.742Z,1.70
2023-05-16T16:48:10.778Z,1.38
2023-05-16T16:50:37.438Z,1.67
2023-05-16T16:53:04.462Z,1.73
2023-05-16T16:55:31.197Z,1.88
2023-05-16T16:57:57.719Z,1.60
2023-05-16T17:00:24.466Z,1.95
2023-05-16T17:02:51.162Z,2.42
2023-05-16T17:05:17.804Z,2.47
2023-05-16T17:07:44.338Z,1.98
2023-05-16T17:10:10.946Z,2.60
2023-05-16T17:12:44.387Z,2.90
2023-05-16T17:15:11.794Z,2.67
2023-05-16T17:17:38.503Z,3.22
2023-05-16T17:20:07.225Z,2.95
2023-05-16T17:22:33.807Z,3.17
2023-05-16T17:25:00.242Z,3.30
2023-05-16T17:27:26.676Z,3.38
2023-05-16T17:29:53.144Z,2.88
2023-05-16T17:32:21.338Z,3.00
2023-05-16T17:34:48.174Z,2.95
2023-05-16T17:37:14.680Z,2.78
2023-05-16T17:39:41.134Z,3.28
2023-05-16T17:42:09.074Z,2.92
2023-05-16T17:44:36.432Z,3.22
2023-05-16T17:47:02.913Z,2.92
2023-05-16T17:49:29.605Z,2.80
2023-05-16T17:51:59.029Z,2.67
2023-05-16T17:54:27.156Z,2.30
2023-05-16T17:56:53.657Z,3.45
2023-05-16T17:59:20.159Z,2.60
2023-05-16T18:01:47.319Z,2.97
2023-05-16T18:04:14.324Z,3.50
2023-05-16T18:06:41.128Z,3.30
2023-05-16T18:09:09.893Z,3.55
2023-05-16T18:11:37.970Z,3.63
2023-05-16T18:14:04.677Z,4.03
2023-05-16T18:16:31.248Z,3.60
2023-05-16T18:18:58.122Z,3.10
2023-05-16T18:21:24.858Z,3.58
2023-05-16T18:23:51.679Z,3.75
2023-05-16T18:26:19.260Z,4.07
2023-05-16T18:28:46.164Z,3.20
2023-05-16T18:31:12.655Z,3.22
2023-05-16T18:33:39.158Z,3.80
2023-05-16T18:36:05.825Z,3.67
2023-05-16T18:38:33.606Z,3.30
2023-05-16T18:41:00.452Z,3.55
2023-05-16T18:43:26.971Z,3.28
2023-05-16T18:45:53.450Z,3.38
2023-05-16T18:48:19.984Z,3.40
2023-05-16T18:50:46.689Z,4.07
2023-05-16T18:53:13.175Z,3.42
2023-05-16T18:55:39.755Z,3.22
2023-05-16T18:58:06.904Z,3.30
2023-05-16T19:00:34.238Z,3.65
2023-05-16T19:03:01.149Z,3.25
2023-05-16T19:05:28.037Z,3.38
2023-05-16T19:07:54.756Z,4.38
2023-05-16T19:10:21.463Z,3.20
2023-05-16T19:12:49.035Z,3.15
2023-05-16T19:15:15.546Z,3.65
2023-05-16T19:17:42.104Z,3.38
2023-05-16T19:20:09.942Z,3.83
2023-05-16T19:22:36.756Z,3.70
2023-05-16T19:25:03.825Z,3.72
2023-05-16T19:27:30.738Z,4.25
2023-05-16T19:29:57.128Z,3.78
2023-05-16T19:32:23.866Z,3.38
2023-05-16T19:34:50.376Z,3.47
2023-05-16T19:37:16.844Z,2.90
2023-05-16T19:39:43.261Z,2.92
2023-05-16T19:42:09.689Z,3.00
2023-05-16T19:44:36.085Z,2.88
2023-05-16T19:47:02.690Z,3.05
2023-05-16T19:49:31.607Z,2.80
2023-05-16T19:51:58.104Z,2.75
2023-05-16T19:54:24.621Z,3.13
2023-05-16T19:56:51.060Z,2.45
2023-05-16T19:59:17.593Z,2.63
2023-05-16T20:01:44.222Z,2.47
2023-05-16T20:04:11.587Z,3.13
2023-05-16T20:06:38.197Z,2.88
2023-05-16T20:09:05.963Z,3.95
2023-05-16T20:11:32.612Z,3.25
2023-05-16T20:14:00.124Z,2.75
2023-05-16T20:16:27.245Z,2.70
2023-05-16T20:18:53.887Z,2.65
2023-05-16T20:21:20.433Z,2.85
2023-05-16T20:23:46.949Z,2.75
2023-05-16T20:26:14.854Z,3.13
2023-05-16T20:28:41.813Z,2.47
2023-05-16T20:31:08.354Z,2.50
2023-05-16T20:33:34.849Z,2.70
2023-05-16T20:36:01.327Z,2.97
2023-05-16T20:38:27.793Z,3.15
2023-05-16T20:40:54.203Z,2.42
2023-05-16T20:43:20.700Z,2.38
2023-05-16T20:45:47.142Z,2.70
2023-05-16T20:48:14.032Z,2.67
2023-05-16T20:50:40.644Z,2.17
2023-05-16T20:53:07.166Z,2.67
2023-05-16T20:55:33.618Z,2.90
2023-05-16T20:58:00.743Z,2.92
2023-05-16T21:00:27.199Z,2.72
2023-05-16T21:02:53.705Z,3.22
2023-05-16T21:05:25.454Z,2.78
2023-05-16T21:10:19.145Z,2.80
2023-05-16T21:12:45.696Z,2.50
2023-05-16T21:15:12.324Z,3.08
2023-05-16T21:17:40.740Z,2.65
2023-05-16T21:20:08.155Z,3.03
2023-05-16T21:22:34.633Z,2.67
2023-05-16T21:25:01.164Z,2.50
2023-05-16T21:27:27.623Z,3.38
2023-05-16T21:29:54.060Z,2.63
2023-05-16T21:32:20.489Z,2.65
2023-05-16T21:34:46.921Z,2.63
2023-05-16T21:37:13.465Z,2.53
2023-05-16T21:39:39.895Z,3.00
2023-05-16T21:42:06.568Z,2.75
2023-05-16T21:44:33.009Z,2.88
2023-05-16T21:46:59.428Z,3.28
2023-05-16T21:49:25.882Z,3.08
2023-05-16T21:51:52.351Z,3.10
2023-05-16T21:54:18.860Z,2.85
2023-05-16T21:56:45.583Z,2.67
2023-05-16T21:59:13.744Z,3.05
2023-05-16T22:01:40.223Z,2.90
2023-05-16T22:04:06.794Z,3.35
2023-05-16T22:06:33.359Z,3.05
2023-05-16T22:09:04.331Z,3.25
2023-05-16T22:11:30.950Z,2.53
2023-05-16T22:13:57.443Z,4.10
2023-05-16T22:16:23.946Z,3.10
2023-05-16T22:18:50.480Z,2.65
2023-05-16T22:21:17.203Z,2.60
2023-05-16T22:23:43.661Z,2.85
2023-05-16T22:26:10.262Z,2.67
2023-05-16T22:28:36.742Z,2.40
2023-05-16T22:31:03.150Z,2.20
2023-05-16T22:33:29.668Z,2.47
2023-05-16T22:35:56.189Z,2.83
2023-05-16T22:38:22.670Z,2.60
2023-05-16T22:40:49.125Z,2.33
2023-05-16T22:43:15.721Z,2.90
2023-05-16T22:45:42.122Z,2.40
2023-05-16T22:48:08.696Z,2.60
2023-05-16T22:50:35.199Z,3.00
2023-05-16T22:53:01.618Z,2.53
2023-05-16T22:55:28.282Z,2.75
2023-05-16T22:57:57.051Z,2.88
2023-05-16T23:00:23.570Z,2.92
2023-05-16T23:02:50.148Z,2.85
2023-05-16T23:05:16.858Z,3.15
2023-05-16T23:07:43.306Z,2.63
2023-05-16T23:10:09.840Z,3.13
2023-05-16T23:12:36.279Z,2.88
2023-05-16T23:15:03.215Z,3.17
2023-05-16T23:17:29.746Z,2.75
2023-05-16T23:19:56.332Z,2.90
2023-05-16T23:22:22.862Z,2.90
2023-05-16T23:24:49.294Z,3.15
2023-05-16T23:27:15.747Z,3.75
2023-05-16T23:29:42.402Z,3.38
2023-05-16T23:32:08.850Z,3.80
2023-05-16T23:34:35.368Z,3.22
2023-05-16T23:37:01.799Z,3.28
2023-05-16T23:39:28.278Z,4.20
2023-05-16T23:41:54.873Z,4.57
2023-05-16T23:44:21.313Z,3.53
2023-05-16T23:46:47.761Z,3.55
2023-05-16T23:49:14.189Z,3.70
2023-05-16T23:51:56.224Z,3.60
2023-05-16T23:54:23.646Z,3.28
2023-05-16T23:56:50.129Z,3.60
2023-05-16T23:59:16.618Z,3.80
